Time;durP1;ratioP1;P1;durP2;ratioP2;P2;SDS_P1;SDS_P2;PMS_P1;PMS_P2;Temp;Humidity;BMP_temperature;BMP_pressure;BME280_temperature;BME280_humidity;BME280_pressure;Samples;Min_cycle;Max_cycle;Signal;HPM_P1;HPM_P2
2024/01/28 00:01:32;;;;;;;;;5.50;5.50;;;;;5.27;100.00;102782.31;5078863;27;47074;-91
2024/01/28 00:04:18;;;;;;;;;0.00;0.00;;;;;5.28;100.00;102769.44;5096821;27;45350;-91
2024/01/28 00:06:48;;;;;;;;;0.00;0.00;;;;;5.28;100.00;102766.00;5096875;27;45404;-91
2024/01/28 00:09:29;;;;;;;;;0.00;0.00;;;;;5.29;100.00;102753.09;5079643;27;45408;-91
2024/01/28 00:12:29;;;;;;;;;0.00;0.00;;;;;5.26;100.00;102742.69;5094282;27;47139;-91
2024/01/28 00:18:30;;;;;;;;;;;;;;;;;;;;;
2024/01/28 00:21:18;;;;;;;;;;;;;;;;;;;;;
2024/01/28 00:24:34;;;;;;;;;;;;;;;;;;;;;
2024/01/28 00:27:57;;;;;;;;;0.00;0.00;;;;;5.15;100.00;102713.16;5094349;27;71380;-91
2024/01/28 00:30:44;;;;;;;;;9.75;9.75;;;;;5.16;100.00;102717.47;5081887;27;45382;-91
2024/01/28 00:34:08;;;;;;;;;0.00;0.00;;;;;5.11;100.00;102712.22;5000657;28;45321;-91
2024/01/28 00:40:34;;;;;;;;;;;;;;;;;;;;;
2024/01/28 00:46:59;;;;;;;;;0.00;0.00;;;;;4.97;100.00;102722.16;4978533;28;45656;-91
2024/01/28 00:49:29;;;;;;;;;0.00;0.00;;;;;4.97;100.00;102719.56;4970115;28;45475;-90
2024/01/28 00:52:48;;;;;;;;;;;;;;;;;;;;;
2024/01/28 00:55:14;;;;;;;;;;;;;;;;;;;;;
2024/01/28 01:00:43;;;;;;;;;;;;;;;;;;;;;
2024/01/28 01:03:11;;;;;;;;;0.00;0.00;;;;;4.84;100.00;102700.31;4957801;28;74436;-90
2024/01/28 01:05:41;;;;;;;;;0.00;0.00;;;;;4.85;100.00;102707.25;4959096;28;45401;-89
2024/01/28 01:08:16;;;;;;;;;3.00;3.00;;;;;4.85;100.00;102712.41;4942354;28;45499;-89
2024/01/28 01:11:05;;;;;;;;;0.00;0.00;;;;;4.85;100.00;102709.81;4971541;28;45478;-89
2024/01/28 01:13:54;;;;;;;;;4.00;4.00;;;;;4.81;100.00;102710.59;4963429;28;45476;-89
2024/01/28 01:16:22;;;;;;;;;0.00;0.00;;;;;4.79;100.00;102707.09;4983520;28;45468;-89
2024/01/28 01:18:49;;;;;;;;;0.00;0.00;;;;;4.73;100.00;102699.16;4981134;28;45515;-89
2024/01/28 01:24:06;;;;;;;;;0.00;0.00;;;;;4.74;100.00;102698.34;5080346;27;45226;-89
2024/01/28 01:26:57;;;;;;;;;0.00;0.00;;;;;4.75;100.00;102694.06;5098658;27;45254;-89
2024/01/28 01:29:27;;;;;;;;;0.00;0.00;;;;;4.73;100.00;102693.13;5100264;27;45483;-89
2024/01/28 01:32:21;;;;;;;;;0.00;0.00;;;;;4.70;100.00;102677.56;5093866;27;47490;-89
2024/01/28 01:34:58;;;;;;;;;;;;;;;;;;;;;
2024/01/28 01:37:26;;;;;;;;;0.00;0.00;;;;;4.66;100.00;102661.13;5111298;27;70421;-89
2024/01/28 01:40:02;;;;;;;;;0.00;0.00;;;;;4.66;100.00;102658.56;5091259;27;45421;-89
2024/01/28 01:43:02;;;;;;;;;;;;;;;;;;;;;
2024/01/28 01:45:43;;;;;;;;;;;;;;;;;;;;;
2024/01/28 01:48:34;;;;;;;;;0.00;0.00;;;;;4.65;100.00;102661.97;5074195;28;69958;-89
2024/01/28 01:51:06;;;;;;;;;0.00;0.00;;;;;4.64;100.00;102645.66;5078210;28;45254;-89
2024/01/28 01:53:40;;;;;;;;;0.00;0.00;;;;;4.60;100.00;102640.34;5094633;27;45504;-89
2024/01/28 01:56:06;;;;;;;;;0.00;0.00;;;;;4.64;100.00;102644.75;5078002;28;45271;-89
2024/01/28 01:58:37;;;;;;;;;0.00;0.00;;;;;4.63;100.00;102651.63;5111558;27;45428;-90
2024/01/28 02:01:18;;;;;;;;;;;;;;;;;;;;;
2024/01/28 02:03:57;;;;;;;;;0.00;0.00;;;;;4.63;100.00;102646.47;5095137;27;76290;-89
2024/01/28 02:06:35;;;;;;;;;;;;;;;;;;;;;
2024/01/28 02:09:14;;;;;;;;;;;;;;;;;;;;;
2024/01/28 02:11:41;;;;;;;;;0.00;0.00;;;;;4.61;100.00;102639.53;5096861;27;70705;-88
2024/01/28 02:14:29;;;;;;;;;;;;;;;;;;;;;
2024/01/28 02:17:25;;;;;;;;;0.00;0.00;;;;;4.81;100.00;102648.66;5096946;27;74229;-89
2024/01/28 02:20:11;;;;;;;;;0.00;0.00;;;;;4.80;100.00;102639.16;5096402;27;45519;-88
2024/01/28 02:23:14;;;;;;;;;0.00;0.00;;;;;4.80;100.00;102635.72;5097983;27;45247;-90
2024/01/28 02:25:34;;;;;;;;;0.00;0.00;;;;;4.84;100.00;102638.38;5073985;28;46571;-90
2024/01/28 02:28:12;;;;;;;;;;;;;;;;;;;;;
2024/01/28 02:30:53;;;;;;;;;;;;;;;;;;;;;
2024/01/28 02:33:21;;;;;;;;;0.00;0.00;;;;;4.78;100.00;102621.91;5091887;27;70000;-90
2024/01/28 02:36:13;;;;;;;;;0.00;0.00;;;;;4.75;100.00;102616.66;5094783;27;46095;-90
2024/01/28 02:38:47;;;;;;;;;0.00;0.00;;;;;4.76;100.00;102613.25;5078467;27;45346;-90
2024/01/28 02:41:20;;;;;;;;;0.00;0.00;;;;;4.76;100.00;102608.97;5077719;28;45373;-89
2024/01/28 02:44:00;;;;;;;;;;;;;;;;;;;;;
2024/01/28 02:46:46;;;;;;;;;0.00;0.00;;;;;4.74;100.00;102602.03;5076639;27;75287;-90
2024/01/28 02:49:24;;;;;;;;;0.00;0.00;;;;;4.73;100.00;102597.69;5097631;27;45429;-89
2024/01/28 02:51:57;;;;;;;;;3.00;3.00;;;;;4.73;100.00;102595.09;5097686;27;45426;-90
2024/01/28 02:54:35;;;;;;;;;0.00;0.00;;;;;4.72;100.00;102593.34;5097523;27;45295;-90
2024/01/28 02:57:40;;;;;;;;;;;;;;;;;;;;;
2024/01/28 03:00:21;;;;;;;;;0.00;0.00;;;;;4.53;100.00;102594.59;5050027;28;73828;-91
2024/01/28 03:03:13;;;;;;;;;;;;;;;;;;;;;
2024/01/28 03:06:04;;;;;;;;;0.00;0.00;;;;;4.41;100.00;102571.94;5039876;28;69502;-91
2024/01/28 03:08:40;;;;;;;;;0.00;0.00;;;;;4.43;100.00;102576.31;5055554;28;45540;-90
2024/01/28 03:17:37;;;;;;;;;;;;;;;;;;;;;
2024/01/28 03:20:30;;;;;;;;;;;;;;;;;;;;;
2024/01/28 03:23:46;;;;;;;;;;;;;;;;;;;;;
2024/01/28 03:26:35;;;;;;;;;;;;;;;;;;;;;
2024/01/28 03:29:13;;;;;;;;;3.00;3.00;;;;;4.42;100.00;102547.88;5054096;28;70020;-91
2024/01/28 03:32:15;;;;;;;;;;;;;;;;;;;;;
2024/01/28 03:38:19;;;;;;;;;;;;;;;;;;;;;
2024/01/28 03:41:06;;;;;;;;;;;;;;;;;;;;;
2024/01/28 03:43:47;;;;;;;;;2.25;2.25;;;;;4.34;100.00;102532.22;5036675;28;76032;-90
2024/01/28 03:46:24;;;;;;;;;3.00;3.00;;;;;4.38;100.00;102533.19;5037623;28;45835;-90
2024/01/28 03:49:07;;;;;;;;;;;;;;;;;;;;;
2024/01/28 03:51:44;;;;;;;;;0.00;0.00;;;;;4.33;100.00;102533.06;5018800;28;69124;-90
2024/01/28 03:57:28;;;;;;;;;0.00;0.00;;;;;4.33;100.00;102529.59;5024398;28;45502;-91
2024/01/28 04:00:21;;;;;;;;;;;;;;;;;;;;;
2024/01/28 04:03:13;;;;;;;;;;;;;;;;;;;;;
2024/01/28 04:08:39;;;;;;;;;;;;;;;;;;;;;
2024/01/28 04:11:05;;;;;;;;;7.00;7.00;;;;;4.34;100.00;102518.47;5017242;28;68745;-90
2024/01/28 04:13:53;;;;;;;;;0.00;0.00;;;;;4.26;100.00;102511.41;5035107;28;45558;-90
2024/01/28 04:16:54;;;;;;;;;;;;;;;;;;;;;
2024/01/28 04:19:52;;;;;;;;;;;;;;;;;;;;;
2024/01/28 04:22:30;;;;;;;;;;;;;;;;;;;;;
2024/01/28 04:25:34;;;;;;;;;0.00;0.00;;;;;4.16;100.00;102518.88;5095817;27;70111;-91
2024/01/28 04:28:45;;;;;;;;;0.00;0.00;;;;;4.14;100.00;102521.44;5075982;28;46590;-90
2024/01/28 04:31:42;;;;;;;;;0.00;0.00;;;;;4.15;100.00;102522.28;5091797;27;45360;-90
2024/01/28 04:34:32;;;;;;;;;0.00;0.00;;;;;4.11;100.00;102515.31;5082573;27;45437;-90
2024/01/28 04:36:58;;;;;;;;;0.00;0.00;;;;;4.11;100.00;102518.75;5074410;28;45643;-89
2024/01/28 04:39:23;;;;;;;;;1.00;1.00;;;;;4.10;100.00;102518.72;5057266;28;46514;-89
2024/01/28 04:41:54;;;;;;;;;0.00;0.00;;;;;4.08;100.00;102522.09;5040105;28;59375;-89
2024/01/28 04:44:30;;;;;;;;;0.00;0.00;;;;;4.11;100.00;102523.06;5058165;28;45448;-89
2024/01/28 04:46:57;;;;;;;;;0.00;0.00;;;;;4.08;100.00;102519.53;5058778;28;45548;-89
2024/01/28 04:49:27;;;;;;;;;0.00;0.00;;;;;4.06;100.00;102513.47;5086248;27;45499;-89
2024/01/28 04:52:09;;;;;;;;;0.00;0.00;;;;;4.03;100.00;102513.41;5073682;28;45588;-89
2024/01/28 04:54:37;;;;;;;;;0.00;0.00;;;;;4.00;100.00;102513.31;5057945;28;45670;-89
2024/01/28 04:57:22;;;;;;;;;0.00;0.00;;;;;4.00;100.00;102513.31;5057851;28;45446;-89
2024/01/28 05:00:05;;;;;;;;;;;;;;;;;;;;;
2024/01/28 05:02:58;;;;;;;;;0.00;0.00;;;;;4.02;100.00;102503.06;5062999;28;72841;-89
2024/01/28 05:06:10;;;;;;;;;;;;;;;;;;;;;
2024/01/28 05:09:03;;;;;;;;;0.00;0.00;;;;;3.95;100.00;102508.88;5068640;28;71365;-89
2024/01/28 05:11:36;;;;;;;;;0.00;0.00;;;;;3.95;100.00;102514.88;5057205;28;48230;-89
2024/01/28 05:14:19;;;;;;;;;;;;;;;;;;;;;
2024/01/28 05:16:53;;;;;;;;;0.00;0.00;;;;;3.92;100.00;102507.09;5096957;27;69122;-90
2024/01/28 05:19:30;;;;;;;;;0.00;0.00;;;;;3.91;100.00;102517.34;5116281;27;45297;-90
2024/01/28 05:22:25;;;;;;;;;0.00;0.00;;;;;3.90;100.00;102523.31;5095427;27;48119;-90
2024/01/28 05:24:55;;;;;;;;;0.00;0.00;;;;;3.86;100.00;102520.69;5083453;27;45455;-90
2024/01/28 05:27:48;;;;;;;;;;;;;;;;;;;;;
2024/01/28 05:33:17;;;;;;;;;0.00;0.00;;;;;3.78;100.00;102509.28;5096915;27;46626;-89
2024/01/28 05:35:59;;;;;;;;;0.00;0.00;;;;;3.82;100.00;102515.38;5099094;27;45439;-90
2024/01/28 05:42:16;;;;;;;;;;;;;;;;;;;;;
2024/01/28 05:45:19;;;;;;;;;9.75;9.75;;;;;3.74;100.00;102510.03;4996093;28;75476;-91
2024/01/28 05:57:34;;;;;;;;;;;;;;;;;;;;;
2024/01/28 06:00:33;;;;;;;;;;;;;;;;;;;;;
2024/01/28 06:03:13;;;;;;;;;0.00;0.00;;;;;3.71;100.00;102489.34;4872031;29;68341;-90
2024/01/28 06:05:55;;;;;;;;;;;;;;;;;;;;;
2024/01/28 06:08:40;;;;;;;;;0.00;0.00;;;;;3.73;100.00;102491.94;4861531;29;75338;-90
2024/01/28 06:11:11;;;;;;;;;0.00;0.00;;;;;3.76;100.00;102492.06;4862040;29;45341;-88
2024/01/28 06:14:18;;;;;;;;;0.00;0.00;;;;;3.72;100.00;102475.63;4862134;29;45411;-89
2024/01/28 06:16:58;;;;;;;;;;;;;;;;;;;;;
2024/01/28 06:19:44;;;;;;;;;;;;;;;;;;;;;
2024/01/28 06:22:16;;;;;;;;;0.00;0.00;;;;;3.72;100.00;102474.78;4934912;28;74043;-89
2024/01/28 06:25:11;;;;;;;;;0.00;0.00;;;;;3.74;100.00;102478.25;4922134;28;45463;-89
2024/01/28 06:28:10;;;;;;;;;;;;;;;;;;;;;
2024/01/28 06:30:50;;;;;;;;;;;;;;;;;;;;;
2024/01/28 06:33:23;;;;;;;;;0.00;0.00;;;;;3.77;100.00;102455.13;4986826;28;73847;-90
2024/01/28 06:35:57;;;;;;;;;0.00;0.00;;;;;3.79;100.00;102459.53;5042720;28;45376;-90
2024/01/28 06:38:37;;;;;;;;;;;;;;;;;;;;;
2024/01/28 06:41:15;;;;;;;;;0.00;0.00;;;;;3.74;100.00;102444.78;5077137;27;76186;-91
2024/01/28 06:43:43;;;;;;;;;0.00;0.00;;;;;3.76;100.00;102449.13;5094412;27;45838;-90
2024/01/28 06:46:18;;;;;;;;;;;;;;;;;;;;;
2024/01/28 06:49:12;;;;;;;;;0.00;0.00;;;;;3.79;100.00;102445.75;5100297;27;70126;-90
2024/01/28 06:51:47;;;;;;;;;0.00;0.00;;;;;3.79;100.00;102441.50;5080715;27;47185;-90
2024/01/28 06:54:35;;;;;;;;;0.00;0.00;;;;;3.79;100.00;102444.06;5097604;27;45405;-91
2024/01/28 06:57:13;;;;;;;;;0.00;0.00;;;;;3.75;100.00;102431.94;5114128;27;45337;-90
2024/01/28 06:59:52;;;;;;;;;;;;;;;;;;;;;
2024/01/28 07:02:20;;;;;;;;;0.00;0.00;;;;;3.78;100.00;102444.03;5097793;27;75369;-90
2024/01/28 07:04:48;;;;;;;;;0.00;0.00;;;;;3.75;100.00;102441.34;5096570;27;45852;-89
2024/01/28 07:07:14;;;;;;;;;0.00;0.00;;;;;3.71;100.00;102436.97;5097412;27;45538;-90
2024/01/28 07:09:57;;;;;;;;;0.00;0.00;;;;;3.69;100.00;102439.47;5097303;27;45398;-90
2024/01/28 07:15:25;;;;;;;;;0.00;0.00;;;;;3.65;100.00;102447.97;5065866;28;45318;-89
2024/01/28 07:18:09;;;;;;;;;0.00;0.00;;;;;3.62;100.00;102443.63;5096238;27;45272;-90
2024/01/28 07:20:45;;;;;;;;;;;;;;;;;;;;;
2024/01/28 07:23:28;;;;;;;;;;;;;;;;;;;;;
2024/01/28 07:26:01;;;;;;;;;0.00;0.00;;;;;3.57;100.00;102449.47;5092834;27;73853;-92
2024/01/28 07:28:26;;;;;;;;;0.00;0.00;;;;;3.57;100.00;102445.19;5097887;27;45334;-87
2024/01/28 07:30:59;;;;;;;;;0.00;0.00;;;;;3.55;100.00;102452.00;5114525;27;45458;-89
2024/01/28 07:33:25;;;;;;;;;0.00;0.00;;;;;3.59;100.00;102455.53;5076601;28;45578;-88
2024/01/28 07:35:50;;;;;;;;;0.00;0.00;;;;;3.58;100.00;102452.06;5073873;28;69712;-87
2024/01/28 07:38:15;;;;;;;;;0.00;0.00;;;;;3.61;100.00;102456.44;5070360;27;60775;-82
2024/01/28 07:40:40;;;;;;;;;0.00;0.00;;;;;3.62;100.00;102459.06;5081717;27;66851;-81
2024/01/28 07:43:06;;;;;;;;;0.00;0.00;;;;;3.65;100.00;102456.56;5089532;27;75387;-81
2024/01/28 07:45:32;;;;;;;;;0.00;0.00;;;;;3.64;100.00;102456.50;5095013;27;45834;-84
2024/01/28 07:47:57;;;;;;;;;0.00;0.00;;;;;3.67;100.00;102456.59;5087069;27;45463;-84
2024/01/28 07:50:23;;;;;;;;;0.00;0.00;;;;;3.68;100.00;102458.38;5088051;27;45649;-83
2024/01/28 07:52:48;;;;;;;;;0.00;0.00;;;;;3.71;100.00;102455.84;5074882;27;75457;-83
2024/01/28 07:55:13;;;;;;;;;0.00;0.00;;;;;3.72;100.00;102455.03;5074847;27;73297;-86
2024/01/28 07:57:39;;;;;;;;;0.00;0.00;;;;;3.76;100.00;102449.13;5091136;27;51902;-82
2024/01/28 08:00:05;;;;;;;;;0.00;0.00;;;;;3.78;100.00;102446.59;5090588;27;45526;-83
2024/01/28 08:02:30;;;;;;;;;3.00;3.00;;;;;3.81;100.00;102450.13;5090789;27;45556;-81
2024/01/28 08:04:56;;;;;;;;;0.00;0.00;;;;;3.86;100.00;102451.13;5089719;27;45574;-82
2024/01/28 08:07:21;;;;;;;;;0.00;0.00;;;;;3.91;100.00;102447.78;5096095;27;68286;-86
2024/01/28 08:09:46;;;;;;;;;0.00;0.00;;;;;3.94;100.00;102445.28;5092498;27;45552;-82
2024/01/28 08:12:12;;;;;;;;;0.00;0.00;;;;;3.98;100.00;102448.00;5079516;27;45694;-84
2024/01/28 08:14:37;;;;;;;;;0.00;0.00;;;;;4.02;100.00;102446.38;5089205;27;64186;-82
2024/01/28 08:17:03;;;;;;;;;0.00;0.00;;;;;4.07;100.00;102442.22;5082952;27;45349;-83
2024/01/28 08:19:30;;;;;;;;;0.00;0.00;;;;;4.13;100.00;102449.22;5113568;27;45356;-82
2024/01/28 08:21:55;;;;;;;;;1.00;1.00;;;;;4.17;100.00;102444.16;5075581;27;45466;-84
2024/01/28 08:24:20;;;;;;;;;0.00;0.00;;;;;4.20;100.00;102441.66;5092542;27;70206;-84
2024/01/28 08:26:46;;;;;;;;;0.00;0.00;;;;;4.28;100.00;102446.16;5090508;27;57891;-84
2024/01/28 08:29:11;;;;;;;;;1.00;1.00;;;;;4.34;100.00;102452.31;5091456;27;45715;-84
2024/01/28 08:31:36;;;;;;;;;0.00;0.00;;;;;4.39;100.00;102458.44;5075440;27;45495;-84
2024/01/28 08:34:02;;;;;;;;;0.00;0.00;;;;;4.45;100.00;102455.16;5073431;28;72960;-83
2024/01/28 08:36:27;;;;;;;;;0.00;0.00;;;;;4.50;100.00;102453.56;5091531;27;45517;-84
2024/01/28 08:38:52;;;;;;;;;0.00;0.00;;;;;4.56;100.00;102458.00;5111088;27;64477;-84
2024/01/28 08:41:18;;;;;;;;;0.50;0.50;;;;;4.61;100.00;102451.25;5094176;27;45490;-84
2024/01/28 08:43:44;;;;;;;;;1.00;1.00;;;;;4.69;100.00;102451.41;5093649;27;73140;-84
2024/01/28 08:46:09;;;;;;;;;0.50;0.50;;;;;4.72;100.00;102446.28;5077805;27;45298;-85
2024/01/28 08:48:35;;;;;;;;;0.00;0.00;;;;;4.77;100.00;102450.75;5094698;27;45486;-85
2024/01/28 08:51:00;;;;;;;;;3.00;3.00;;;;;4.80;100.00;102453.38;5080832;27;46910;-85
2024/01/28 08:53:25;;;;;;;;;0.33;0.33;;;;;4.83;100.00;102448.31;5096278;27;73144;-84
2024/01/28 08:55:51;;;;;;;;;0.00;0.00;;;;;4.90;100.00;102446.72;5097603;27;51505;-85
2024/01/28 08:58:16;;;;;;;;;0.00;0.00;;;;;4.96;100.00;102449.44;5097606;27;50020;-85
2024/01/28 09:00:41;;;;;;;;;0.00;0.00;;;;;4.99;100.00;102441.75;5097056;27;74081;-85
2024/01/28 09:03:07;;;;;;;;;0.25;0.25;;;;;5.05;100.00;102443.59;5097883;27;45318;-85
2024/01/28 09:05:32;;;;;;;;;0.00;0.00;;;;;5.09;100.00;102434.19;5097912;27;58775;-85
2024/01/28 09:07:57;;;;;;;;;0.00;0.00;;;;;5.14;100.00;102430.00;5098580;27;66754;-84
2024/01/28 09:10:23;;;;;;;;;0.00;0.00;;;;;5.20;100.00;102430.13;5097382;27;45376;-85
2024/01/28 09:12:48;;;;;;;;;0.00;0.00;;;;;5.27;100.00;102420.81;5097767;27;45356;-85
2024/01/28 09:15:14;;;;;;;;;0.00;0.00;;;;;5.33;100.00;102423.50;5115105;27;45570;-85
2024/01/28 09:17:40;;;;;;;;;0.00;0.00;;;;;5.37;100.00;102415.84;5096460;27;45339;-85
2024/01/28 09:20:06;;;;;;;;;0.00;0.00;;;;;5.47;100.00;102418.63;5097581;27;46977;-85
2024/01/28 09:22:34;;;;;;;;;0.00;0.00;;;;;5.54;100.00;102416.19;5097313;27;45722;-84
2024/01/28 09:24:59;;;;;;;;;0.00;0.00;;;;;5.63;100.00;102416.34;5097504;27;45458;-85
2024/01/28 09:27:25;;;;;;;;;0.00;0.00;;;;;5.70;100.00;102412.19;5109021;27;45558;-84
2024/01/28 09:29:51;;;;;;;;;7.00;3.50;;;;;5.81;100.00;102414.94;5098786;27;45422;-84
2024/01/28 09:32:18;;;;;;;;;0.00;0.00;;;;;5.90;100.00;102416.81;5097455;27;45378;-84
2024/01/28 09:34:45;;;;;;;;;0.00;0.00;;;;;5.99;100.00;102414.41;5108783;27;45302;-85
2024/01/28 09:37:10;;;;;;;;;1.00;1.00;;;;;6.10;100.00;102410.28;5114498;27;45694;-84
2024/01/28 09:39:35;;;;;;;;;0.00;0.00;;;;;6.20;100.00;102411.31;5098647;27;45700;-85
2024/01/28 09:42:07;;;;;;;;;43.00;21.00;;;;;6.32;100.00;102414.09;5097941;27;65082;-84
2024/01/28 09:44:32;;;;;;;;;0.00;0.00;;;;;6.42;100.00;102416.81;5099582;27;45301;-84
2024/01/28 09:46:59;;;;;;;;;0.00;0.00;;;;;6.49;100.00;102411.75;5098578;27;66027;-85
2024/01/28 09:49:24;;;;;;;;;0.00;0.00;;;;;6.60;100.00;102409.34;5096121;27;74828;-84
2024/01/28 09:51:50;;;;;;;;;0.00;0.00;;;;;6.70;100.00;102408.59;5097732;27;73234;-84
2024/01/28 09:54:15;;;;;;;;;0.00;0.00;;;;;6.82;100.00;102418.28;5101295;27;45445;-84
2024/01/28 09:56:41;;;;;;;;;0.00;0.00;;;;;6.91;100.00;102414.91;5098791;27;70483;-84
2024/01/28 09:59:08;;;;;;;;;0.50;0.50;;;;;7.04;100.00;102421.13;5095486;27;46623;-84
2024/01/28 10:01:34;;;;;;;;;0.00;0.00;;;;;7.13;100.00;102418.66;5079000;27;45500;-84
2024/01/28 10:04:00;;;;;;;;;0.00;0.00;;;;;7.24;100.00;102423.97;5097625;27;45433;-85
2024/01/28 10:06:26;;;;;;;;;4.00;4.00;;;;;7.36;100.00;102426.72;5097342;27;45378;-84
2024/01/28 10:08:51;;;;;;;;;0.00;0.00;;;;;7.49;100.00;102422.53;5096613;27;45405;-84
2024/01/28 10:11:17;;;;;;;;;0.00;0.00;;;;;7.62;100.00;102420.94;5095802;27;73123;-84
2024/01/28 10:13:42;;;;;;;;;0.00;0.00;;;;;7.72;100.00;102421.03;5096850;27;45746;-85
2024/01/28 10:16:07;;;;;;;;;0.00;0.00;;;;;7.86;100.00;102416.00;5112048;27;70025;-85
2024/01/28 10:18:33;;;;;;;;;0.00;0.00;;;;;7.94;100.00;102416.91;5096945;27;48010;-84
2024/01/28 10:20:58;;;;;;;;;0.00;0.00;;;;;8.05;100.00;102431.72;5091987;27;67637;-85
2024/01/28 10:23:23;;;;;;;;;0.00;0.00;;;;;8.12;100.00;102431.78;5081583;27;59471;-85
2024/01/28 10:25:49;;;;;;;;;0.00;0.00;;;;;8.23;100.00;102433.59;5096915;27;45400;-84
2024/01/28 10:28:17;;;;;;;;;0.00;0.00;;;;;8.30;100.00;102443.16;5107673;27;77740;-85
2024/01/28 10:30:42;;;;;;;;;0.00;0.00;;;;;8.36;100.00;102442.31;5077520;28;45353;-85
2024/01/28 10:33:08;;;;;;;;;4.00;4.00;;;;;8.45;100.00;102434.66;5094613;27;45436;-85
2024/01/28 10:35:33;;;;;;;;;0.00;0.00;;;;;8.58;100.00;102430.41;5095599;27;45481;-84
2024/01/28 10:37:59;;;;;;;;;0.00;0.00;;;;;8.70;100.00;102422.72;5078082;27;72431;-85
2024/01/28 10:40:35;;;;;;;;;0.00;0.00;;;;;8.81;100.00;102421.03;5096770;27;45454;-85
2024/01/28 10:43:02;;;;;;;;;0.00;0.00;;;;;8.92;100.00;102418.50;5096597;27;45425;-85
2024/01/28 10:45:27;;;;;;;;;0.00;0.00;;;;;9.01;100.00;102410.75;5096520;27;45518;-85
2024/01/28 10:47:55;;;;;;;;;0.00;0.00;;;;;9.13;100.00;102419.44;5095555;27;61933;-84
2024/01/28 10:50:21;;;;;;;;;0.00;0.00;;;;;9.26;100.00;102418.63;5095353;27;45405;-84
2024/01/28 10:52:48;;;;;;;;;0.00;0.00;;;;;9.34;100.00;102409.13;5097150;27;45383;-85
2024/01/28 10:55:14;;;;;;;;;1.00;1.00;;;;;9.38;100.00;102410.88;5113544;27;45472;-84
2024/01/28 10:57:39;;;;;;;;;0.00;0.00;;;;;9.48;100.00;102409.16;5096163;27;47012;-84
2024/01/28 11:00:06;;;;;;;;;0.00;0.00;;;;;9.52;100.00;102403.09;5079225;27;45393;-85
2024/01/28 11:02:32;;;;;;;;;0.00;0.00;;;;;9.54;100.00;102406.56;5097648;27;45406;-85
2024/01/28 11:04:58;;;;;;;;;0.00;0.00;;;;;9.58;100.00;102397.91;5096338;27;45467;-85
2024/01/28 11:07:24;;;;;;;;;0.00;0.00;;;;;9.65;100.00;102399.66;5093688;27;76403;-85
2024/01/28 11:09:51;;;;;;;;;0.00;0.00;;;;;9.72;100.00;102394.47;5097041;27;45476;-85
2024/01/28 11:12:16;;;;;;;;;0.00;0.00;;;;;9.82;100.00;102386.66;5096878;27;45474;-84
2024/01/28 11:14:42;;;;;;;;;0.00;0.00;;;;;9.89;100.00;102385.81;5095050;27;68739;-85
2024/01/28 11:17:12;;;;;;;;;0.00;0.00;;;;;10.11;100.00;102377.16;5096549;27;46059;-85
2024/01/28 11:19:37;;;;;;;;;0.00;0.00;;;;;10.88;100.00;102361.34;5111955;27;45416;-84
2024/01/28 11:22:03;;;;;;;;;0.00;0.00;;;;;12.17;100.00;102370.94;5094033;27;69224;-85
2024/01/28 11:24:29;;;;;;;;;0.00;0.00;;;;;13.53;100.00;102370.19;5096956;27;45429;-84
2024/01/28 11:26:58;;;;;;;;;0.00;0.00;;;;;14.73;100.00;102349.75;5095907;27;47282;-85
2024/01/28 11:29:34;;;;;;;;;0.00;0.00;;;;;15.56;100.00;102358.38;5096996;27;45327;-85
2024/01/28 11:32:03;;;;;;;;;0.00;0.00;;;;;16.44;100.00;102354.38;5087831;27;45435;-85
2024/01/28 11:34:28;;;;;;;;;0.00;0.00;;;;;17.34;100.00;102355.25;5076267;28;45397;-86
2024/01/28 11:36:54;;;;;;;;;0.00;0.00;;;;;17.97;100.00;102344.44;5086818;27;77475;-85
2024/01/28 11:39:44;;;;;;;;;0.00;0.00;;;;;18.55;100.00;102350.31;5078383;27;45803;-85
2024/01/28 11:42:09;;;;;;;;;0.00;0.00;;;;;18.73;99.10;102329.41;5095727;27;45255;-85
2024/01/28 11:44:35;;;;;;;;;0.00;0.00;;;;;18.73;95.22;102330.28;5095917;27;70266;-84
2024/01/28 11:47:02;;;;;;;;;0.00;0.00;;;;;18.65;95.60;102323.59;5095563;27;46127;-85
2024/01/28 11:49:28;;;;;;;;;0.00;0.00;;;;;18.56;95.41;102316.88;5096743;27;45411;-85
2024/01/28 11:51:54;;;;;;;;;0.00;0.00;;;;;18.54;95.79;102323.97;5095814;27;45402;-85
2024/01/28 11:54:19;;;;;;;;;0.00;0.00;;;;;18.62;97.65;102316.63;5094995;27;45364;-85
2024/01/28 11:56:44;;;;;;;;;0.00;0.00;;;;;18.76;91.60;102318.75;5094222;27;72139;-86
2024/01/28 11:59:10;;;;;;;;;0.00;0.00;;;;;18.78;88.44;102316.91;5094134;27;73029;-86
2024/01/28 12:01:35;;;;;;;;;1.50;1.50;;;;;18.59;86.52;102322.03;5095361;27;45402;-85
2024/01/28 12:04:03;;;;;;;;;0.00;0.00;;;;;18.49;86.81;102326.78;5094965;27;45600;-85
2024/01/28 12:06:29;;;;;;;;;0.00;0.00;;;;;18.92;87.54;102326.97;5097772;27;47508;-85
2024/01/28 12:08:54;;;;;;;;;0.00;0.00;;;;;19.60;90.66;102321.63;5100121;27;45516;-85
2024/01/28 12:11:21;;;;;;;;;0.00;0.00;;;;;19.99;82.16;102318.22;5098343;27;45458;-85
2024/01/28 12:13:48;;;;;;;;;4.50;4.50;;;;;20.24;87.83;102313.56;5098147;27;45300;-85
2024/01/28 12:16:17;;;;;;;;;0.00;0.00;;;;;20.57;80.72;102307.66;5098487;27;47219;-85
2024/01/28 12:18:43;;;;;;;;;0.00;0.00;;;;;20.71;77.04;102304.44;5114964;27;45496;-86
2024/01/28 12:21:19;;;;;;;;;0.00;0.00;;;;;20.78;78.76;102302.31;5095113;27;62419;-86
2024/01/28 12:23:51;;;;;;;;;1.00;1.00;;;;;20.56;77.73;102302.44;5095040;27;45431;-85
2024/01/28 12:26:17;;;;;;;;;0.00;0.00;;;;;20.40;79.07;102303.16;5100043;27;45426;-85
2024/01/28 12:28:46;;;;;;;;;0.75;0.75;;;;;20.29;77.63;102301.00;5098896;27;45381;-86
2024/01/28 12:31:12;;;;;;;;;0.00;0.00;;;;;20.22;79.40;102301.34;5097489;27;45542;-86
2024/01/28 12:33:37;;;;;;;;;0.00;0.00;;;;;20.19;82.37;102298.81;5079452;28;45399;-85
2024/01/28 12:36:03;;;;;;;;;0.00;0.00;;;;;20.14;77.27;102299.03;5077479;28;68017;-85
2024/01/28 12:38:28;;;;;;;;;0.00;0.00;;;;;20.01;77.34;102284.66;5096526;27;47664;-85
2024/01/28 12:40:54;;;;;;;;;0.00;0.00;;;;;19.95;77.93;102283.16;5097733;27;67793;-86
2024/01/28 12:43:19;;;;;;;;;0.00;0.00;;;;;19.90;76.82;102285.97;5099093;27;45316;-86
2024/01/28 12:45:44;;;;;;;;;6.00;6.00;;;;;19.94;78.71;102276.13;5097603;27;70016;-85
2024/01/28 12:48:10;;;;;;;;;0.00;0.00;;;;;19.89;78.65;102278.09;5098522;27;70011;-85
2024/01/28 12:50:35;;;;;;;;;0.00;0.00;;;;;19.84;75.57;102278.31;5098473;27;45476;-86
2024/01/28 12:53:00;;;;;;;;;0.00;0.00;;;;;19.81;79.33;102280.25;5075333;28;53008;-86
2024/01/28 12:55:26;;;;;;;;;0.00;0.00;;;;;19.95;78.15;102279.63;5078171;27;69614;-86
2024/01/28 12:57:51;;;;;;;;;0.00;0.00;;;;;20.06;78.79;102270.31;5078413;28;60005;-86
2024/01/28 13:00:17;;;;;;;;;0.00;0.00;;;;;20.16;76.56;102268.09;5079417;28;45761;-86
2024/01/28 13:02:43;;;;;;;;;0.00;0.00;;;;;20.28;76.10;102270.19;5077473;28;45672;-86
2024/01/28 13:05:10;;;;;;;;;0.00;0.00;;;;;20.62;79.72;102265.16;5077531;28;45558;-86
2024/01/28 13:07:36;;;;;;;;;0.00;0.00;;;;;20.87;72.38;102259.56;5061459;28;45717;-86
2024/01/28 13:10:01;;;;;;;;;0.00;0.00;;;;;21.19;72.85;102268.59;5084426;27;45358;-86
2024/01/28 13:12:32;;;;;;;;;0.00;0.00;;;;;21.36;75.89;102266.84;5098551;27;45436;-86
2024/01/28 13:14:57;;;;;;;;;0.00;0.00;;;;;21.89;78.36;102265.94;5099680;27;46414;-86
2024/01/28 13:17:22;;;;;;;;;0.00;0.00;;;;;22.52;80.57;102257.25;5097387;27;64116;-86
2024/01/28 13:19:53;;;;;;;;;22.50;22.50;;;;;23.09;71.22;102248.78;5100297;27;45422;-86
2024/01/28 13:22:18;;;;;;;;;22.00;22.00;;;;;23.37;74.64;102245.34;5080803;27;45517;-86
2024/01/28 13:24:45;;;;;;;;;0.00;0.00;;;;;23.40;74.45;102244.31;5097863;27;75017;-86
2024/01/28 13:27:11;;;;;;;;;0.00;0.00;;;;;23.01;72.47;102248.31;5098770;27;45566;-86
2024/01/28 13:29:39;;;;;;;;;0.25;0.25;;;;;22.39;72.30;102243.81;5097107;27;69372;-86
2024/01/28 13:32:06;;;;;;;;;0.00;0.00;;;;;21.72;68.68;102244.78;5089385;27;45408;-86
2024/01/28 13:34:32;;;;;;;;;0.00;0.00;;;;;21.11;72.38;102246.06;5098166;27;46287;-86
2024/01/28 13:36:57;;;;;;;;;0.00;0.00;;;;;20.63;75.46;102243.06;5098275;27;45341;-86
2024/01/28 13:39:23;;;;;;;;;0.00;0.00;;;;;20.16;76.98;102246.09;5097654;27;45462;-86
2024/01/28 13:41:48;;;;;;;;;0.00;0.00;;;;;19.77;76.99;102236.38;5098602;27;63883;-86
2024/01/28 13:44:13;;;;;;;;;3.00;3.00;;;;;19.41;79.03;102235.25;5097979;27;75754;-85
2024/01/28 13:46:39;;;;;;;;;0.00;0.00;;;;;19.09;81.38;102239.19;5096390;27;72044;-86
2024/01/28 13:49:05;;;;;;;;;0.00;0.00;;;;;18.63;78.20;102226.06;5097857;27;45476;-86
2024/01/28 13:51:31;;;;;;;;;0.00;0.00;;;;;18.16;83.26;102221.69;5098012;27;45459;-86
2024/01/28 13:53:57;;;;;;;;;0.00;0.00;;;;;17.82;86.79;102229.91;5096452;27;47060;-87